ESS Endeavor — WDE8980 — position and weather

sailwx.info

Track history (hours):
 
Tides and Currents Weather Stations Pressure Air Temp Water Temp Dewpoint Dewpoint Depression Visibility Wind Speed Wind Dir Waves Ship Positions

ESS Endeavor

Owner: F/V OCEAN VIEW INC, MANAHAWKIN, NJ. More information available from US FCC via Universal Licensing System and Coast Guard Vessel Documentation Center.

Last reported at 2017-Sep-18 07:06 UTC. Time now 2017-Sep-19 20:32 UTC.
Position N 39°37' W 074°05'.

Length 31 m.

Type: Fishing. MMSI: 367411920.

Date/timePositionNaut miles runAvg speedWind from/ knotsBaromVisibWave heightAir tempDewpointWater temp
2017-Sep-18 07:06N 39°37' W 074°05'1 9.9
2017-Sep-18 07:00N 39°38' W 074°05'43 1.6
2017-Sep-17 03:53N 40°09' W 073°27'32 1.6
2017-Sep-16 08:04N 39°46' W 073°56'410.3
2017-Sep-16 07:40N 39°43' W 073°59'210.4
2017-Sep-16 07:28N 39°42' W 074°01'510.4
2017-Sep-16 06:59N 39°38' W 074°05'510.4
2017-Sep-16 06:30N 39°34' W 074°09'510.3
2017-Sep-16 05:59N 39°29' W 074°13'510.2
2017-Sep-16 05:30N 39°25' W 074°17'4 8.7
2017-Sep-16 04:59N 39°22' W 074°21'3 6.3
2017-Sep-16 04:30N 39°23' W 074°25'1 0.0
2017-Sep-14 13:06N 39°22' W 074°26'0 0.0
2017-Sep-14 10:12N 39°22' W 074°26'0 0.0
2017-Sep-14 09:51N 39°22' W 074°26'0 0.0
2017-Sep-14 09:18N 39°22' W 074°26'0 0.0
2017-Sep-14 09:00N 39°22' W 074°26'0 0.0
2017-Sep-14 08:30N 39°22' W 074°26'0 0.0
2017-Sep-14 08:00N 39°22' W 074°26'0 0.0
2017-Sep-14 07:30N 39°22' W 074°26'0 0.0
2017-Sep-14 07:00N 39°22' W 074°26'0 0.0
2017-Sep-14 06:30N 39°22' W 074°26'0 0.4
2017-Sep-14 06:00N 39°23' W 074°25'20 8.0
2017-Sep-14 03:30N 39°36' W 074°06'5 9.4
2017-Sep-14 02:59N 39°40' W 074°02'40 3.0
2017-Sep-13 13:31N 40°11' W 073°30'1 0.2
2017-Sep-13 10:47N 40°11' W 073°30'1 2.7
2017-Sep-13 10:30N 40°12' W 073°30'2 3.0
2017-Sep-13 09:59N 40°11' W 073°29'2 2.8
2017-Sep-13 09:26N 40°11' W 073°31'1 1.9
2017-Sep-13 08:59N 40°11' W 073°30'1 1.4
2017-Sep-13 08:29N 40°10' W 073°30'1 3.0
2017-Sep-13 08:00N 40°11' W 073°31'1 2.0
2017-Sep-13 07:26N 40°11' W 073°30'0 0.5
2017-Sep-13 06:46N 40°11' W 073°30'1 3.0
2017-Sep-13 06:24N 40°12' W 073°30'1 0.6
2017-Sep-13 04:31N 40°11' W 073°31'0 3.2
2017-Sep-13 04:28N 40°11' W 073°31'1 0.8
2017-Sep-13 03:18N 40°11' W 073°30'41 1.4
2017-Sep-11 22:02N 39°39' W 074°04'110.1
2017-Sep-11 21:59N 39°39' W 074°04'510.1
2017-Sep-11 21:30N 39°35' W 074°08'18 1.7
2017-Sep-11 10:47N 39°22' W 074°25'20 8.6
2017-Sep-11 08:31N 39°36' W 074°06'010.2
2017-Sep-11 08:30N 39°36' W 074°06'510.1
2017-Sep-11 07:59N 39°40' W 074°02'6 0.1
2017-Sep-09 08:05N 39°42' W 073°55'5 9.6
2017-Sep-09 07:36N 39°39' W 073°59'3 9.6
2017-Sep-09 07:18N 39°37' W 074°01'  
Track history (hours):
 
Tides and Currents Weather Stations Pressure Air Temp Water Temp Dewpoint Dewpoint Depression Visibility Wind Speed Wind Dir Waves Ship Positions

ESS Endeavor

Owner: F/V OCEAN VIEW INC, MANAHAWKIN, NJ. More information available from US FCC via Universal Licensing System and Coast Guard Vessel Documentation Center.

Last reported at 2017-Sep-18 07:06 UTC. Time now 2017-Sep-19 20:32 UTC.
Position N 39°37' W 074°05'.

Length 31 m.

Type: Fishing. MMSI: 367411920.

Date/timePositionNaut miles runAvg speedWind from/ knotsBaromVisibWave heightAir tempDewpointWater temp
2017-Sep-18 07:06N 39°37' W 074°05'1 9.9
2017-Sep-18 07:00N 39°38' W 074°05'43 1.6
2017-Sep-17 03:53N 40°09' W 073°27'32 1.6
2017-Sep-16 08:04N 39°46' W 073°56'410.3
2017-Sep-16 07:40N 39°43' W 073°59'210.4
2017-Sep-16 07:28N 39°42' W 074°01'510.4
2017-Sep-16 06:59N 39°38' W 074°05'510.4
2017-Sep-16 06:30N 39°34' W 074°09'510.3
2017-Sep-16 05:59N 39°29' W 074°13'510.2
2017-Sep-16 05:30N 39°25' W 074°17'4 8.7
2017-Sep-16 04:59N 39°22' W 074°21'3 6.3
2017-Sep-16 04:30N 39°23' W 074°25'1 0.0
2017-Sep-14 13:06N 39°22' W 074°26'0 0.0
2017-Sep-14 10:12N 39°22' W 074°26'0 0.0
2017-Sep-14 09:51N 39°22' W 074°26'0 0.0
2017-Sep-14 09:18N 39°22' W 074°26'0 0.0
2017-Sep-14 09:00N 39°22' W 074°26'0 0.0
2017-Sep-14 08:30N 39°22' W 074°26'0 0.0
2017-Sep-14 08:00N 39°22' W 074°26'0 0.0
2017-Sep-14 07:30N 39°22' W 074°26'0 0.0
2017-Sep-14 07:00N 39°22' W 074°26'0 0.0
2017-Sep-14 06:30N 39°22' W 074°26'0 0.4
2017-Sep-14 06:00N 39°23' W 074°25'20 8.0
2017-Sep-14 03:30N 39°36' W 074°06'5 9.4
2017-Sep-14 02:59N 39°40' W 074°02'40 3.0
2017-Sep-13 13:31N 40°11' W 073°30'1 0.2
2017-Sep-13 10:47N 40°11' W 073°30'1 2.7
2017-Sep-13 10:30N 40°12' W 073°30'2 3.0
2017-Sep-13 09:59N 40°11' W 073°29'2 2.8
2017-Sep-13 09:26N 40°11' W 073°31'1 1.9
2017-Sep-13 08:59N 40°11' W 073°30'1 1.4
2017-Sep-13 08:29N 40°10' W 073°30'1 3.0
2017-Sep-13 08:00N 40°11' W 073°31'1 2.0
2017-Sep-13 07:26N 40°11' W 073°30'0 0.5
2017-Sep-13 06:46N 40°11' W 073°30'1 3.0
2017-Sep-13 06:24N 40°12' W 073°30'1 0.6
2017-Sep-13 04:31N 40°11' W 073°31'0 3.2
2017-Sep-13 04:28N 40°11' W 073°31'1 0.8
2017-Sep-13 03:18N 40°11' W 073°30'41 1.4
2017-Sep-11 22:02N 39°39' W 074°04'110.1
2017-Sep-11 21:59N 39°39' W 074°04'510.1
2017-Sep-11 21:30N 39°35' W 074°08'18 1.7
2017-Sep-11 10:47N 39°22' W 074°25'20 8.6
2017-Sep-11 08:31N 39°36' W 074°06'010.2
2017-Sep-11 08:30N 39°36' W 074°06'510.1
2017-Sep-11 07:59N 39°40' W 074°02'6 0.1
2017-Sep-09 08:05N 39°42' W 073°55'5 9.6
2017-Sep-09 07:36N 39°39' W 073°59'3 9.6
2017-Sep-09 07:18N 39°37' W 074°01'  

Dump ship's entire track history